sensor_id;sensor_type;location;lat;lon;timestamp;P1;durP1;ratioP1;P2;durP2;ratioP2
22871;SDS011;11603;44.910;8.630;2023-01-30T00:00:57;48.17;;;28.38;;
22871;SDS011;11603;44.910;8.630;2023-01-30T00:03:24;50.47;;;29.33;;
22871;SDS011;11603;44.910;8.630;2023-01-30T00:05:50;48.80;;;29.77;;
22871;SDS011;11603;44.910;8.630;2023-01-30T00:08:16;51.38;;;31.05;;
22871;SDS011;11603;44.910;8.630;2023-01-30T00:10:42;53.20;;;30.40;;
22871;SDS011;11603;44.910;8.630;2023-01-30T00:13:08;52.22;;;30.10;;
22871;SDS011;11603;44.910;8.630;2023-01-30T00:15:34;58.35;;;31.85;;
22871;SDS011;11603;44.910;8.630;2023-01-30T00:18:00;53.40;;;29.63;;
22871;SDS011;11603;44.910;8.630;2023-01-30T00:20:26;52.28;;;30.38;;
22871;SDS011;11603;44.910;8.630;2023-01-30T00:22:52;47.03;;;29.30;;
22871;SDS011;11603;44.910;8.630;2023-01-30T00:25:17;47.47;;;28.25;;
22871;SDS011;11603;44.910;8.630;2023-01-30T00:27:43;49.55;;;28.55;;
22871;SDS011;11603;44.910;8.630;2023-01-30T00:30:08;49.25;;;28.38;;
22871;SDS011;11603;44.910;8.630;2023-01-30T00:32:34;47.88;;;28.00;;
22871;SDS011;11603;44.910;8.630;2023-01-30T00:34:59;50.33;;;29.17;;
22871;SDS011;11603;44.910;8.630;2023-01-30T00:37:26;50.60;;;28.75;;
22871;SDS011;11603;44.910;8.630;2023-01-30T00:39:52;47.75;;;27.52;;
22871;SDS011;11603;44.910;8.630;2023-01-30T00:42:17;48.13;;;29.52;;
22871;SDS011;11603;44.910;8.630;2023-01-30T00:45:01;49.65;;;29.50;;
22871;SDS011;11603;44.910;8.630;2023-01-30T00:47:47;54.50;;;30.60;;
22871;SDS011;11603;44.910;8.630;2023-01-30T00:50:13;52.42;;;30.27;;
22871;SDS011;11603;44.910;8.630;2023-01-30T00:52:38;50.97;;;29.90;;
22871;SDS011;11603;44.910;8.630;2023-01-30T00:55:04;51.72;;;30.40;;
22871;SDS011;11603;44.910;8.630;2023-01-30T00:57:30;51.63;;;28.98;;
22871;SDS011;11603;44.910;8.630;2023-01-30T00:59:55;51.33;;;30.58;;
22871;SDS011;11603;44.910;8.630;2023-01-30T01:02:21;50.33;;;30.20;;
22871;SDS011;11603;44.910;8.630;2023-01-30T01:04:47;57.17;;;31.45;;
22871;SDS011;11603;44.910;8.630;2023-01-30T01:07:12;51.58;;;30.33;;
22871;SDS011;11603;44.910;8.630;2023-01-30T01:09:39;51.60;;;30.83;;
22871;SDS011;11603;44.910;8.630;2023-01-30T01:12:05;56.33;;;32.47;;
22871;SDS011;11603;44.910;8.630;2023-01-30T01:14:32;53.80;;;31.50;;
22871;SDS011;11603;44.910;8.630;2023-01-30T01:16:58;54.47;;;32.92;;
22871;SDS011;11603;44.910;8.630;2023-01-30T01:19:24;54.45;;;31.67;;
22871;SDS011;11603;44.910;8.630;2023-01-30T01:21:50;59.17;;;33.67;;
22871;SDS011;11603;44.910;8.630;2023-01-30T01:24:16;52.33;;;31.30;;
22871;SDS011;11603;44.910;8.630;2023-01-30T01:26:42;52.83;;;30.92;;
22871;SDS011;11603;44.910;8.630;2023-01-30T01:29:18;50.33;;;30.08;;
22871;SDS011;11603;44.910;8.630;2023-01-30T01:31:44;58.05;;;30.67;;
22871;SDS011;11603;44.910;8.630;2023-01-30T01:34:10;55.85;;;32.45;;
22871;SDS011;11603;44.910;8.630;2023-01-30T01:36:35;51.53;;;31.20;;
22871;SDS011;11603;44.910;8.630;2023-01-30T01:39:01;52.78;;;32.28;;
22871;SDS011;11603;44.910;8.630;2023-01-30T01:41:27;62.05;;;36.25;;
22871;SDS011;11603;44.910;8.630;2023-01-30T01:46:27;60.53;;;35.45;;
22871;SDS011;11603;44.910;8.630;2023-01-30T01:48:59;55.58;;;34.08;;
22871;SDS011;11603;44.910;8.630;2023-01-30T01:54:02;63.97;;;35.90;;
22871;SDS011;11603;44.910;8.630;2023-01-30T01:56:34;58.15;;;34.75;;
22871;SDS011;11603;44.910;8.630;2023-01-30T01:59:07;58.22;;;36.05;;
22871;SDS011;11603;44.910;8.630;2023-01-30T02:01:43;63.63;;;36.50;;
22871;SDS011;11603;44.910;8.630;2023-01-30T02:04:09;62.25;;;34.20;;
22871;SDS011;11603;44.910;8.630;2023-01-30T02:06:36;61.50;;;36.70;;
22871;SDS011;11603;44.910;8.630;2023-01-30T02:09:07;60.95;;;34.65;;
22871;SDS011;11603;44.910;8.630;2023-01-30T02:14:09;64.13;;;36.65;;
22871;SDS011;11603;44.910;8.630;2023-01-30T02:16:36;60.95;;;34.97;;
22871;SDS011;11603;44.910;8.630;2023-01-30T02:19:02;56.35;;;32.95;;
22871;SDS011;11603;44.910;8.630;2023-01-30T02:30:11;57.05;;;32.78;;
22871;SDS011;11603;44.910;8.630;2023-01-30T02:40:57;56.20;;;32.53;;
22871;SDS011;11603;44.910;8.630;2023-01-30T02:44:02;54.28;;;32.22;;
22871;SDS011;11603;44.910;8.630;2023-01-30T02:46:35;55.97;;;31.90;;
22871;SDS011;11603;44.910;8.630;2023-01-30T02:49:23;61.95;;;35.78;;
22871;SDS011;11603;44.910;8.630;2023-01-30T02:52:00;63.30;;;36.67;;
22871;SDS011;11603;44.910;8.630;2023-01-30T02:54:27;58.50;;;34.67;;
22871;SDS011;11603;44.910;8.630;2023-01-30T02:56:55;60.30;;;35.40;;
22871;SDS011;11603;44.910;8.630;2023-01-30T02:59:30;64.43;;;36.47;;
22871;SDS011;11603;44.910;8.630;2023-01-30T03:08:07;66.03;;;37.30;;
22871;SDS011;11603;44.910;8.630;2023-01-30T03:10:37;65.85;;;36.58;;
22871;SDS011;11603;44.910;8.630;2023-01-30T03:13:19;59.00;;;36.40;;
22871;SDS011;11603;44.910;8.630;2023-01-30T03:15:54;63.08;;;36.97;;
22871;SDS011;11603;44.910;8.630;2023-01-30T03:18:27;65.63;;;37.05;;
22871;SDS011;11603;44.910;8.630;2023-01-30T03:20:53;65.85;;;36.10;;
22871;SDS011;11603;44.910;8.630;2023-01-30T03:23:19;69.45;;;36.25;;
22871;SDS011;11603;44.910;8.630;2023-01-30T03:25:45;67.72;;;37.63;;
22871;SDS011;11603;44.910;8.630;2023-01-30T03:28:13;63.15;;;36.03;;
22871;SDS011;11603;44.910;8.630;2023-01-30T03:30:42;59.53;;;35.33;;
22871;SDS011;11603;44.910;8.630;2023-01-30T03:33:08;60.75;;;35.25;;
22871;SDS011;11603;44.910;8.630;2023-01-30T03:35:36;65.38;;;37.10;;
22871;SDS011;11603;44.910;8.630;2023-01-30T03:38:02;63.15;;;37.08;;
22871;SDS011;11603;44.910;8.630;2023-01-30T03:40:28;65.63;;;37.92;;
22871;SDS011;11603;44.910;8.630;2023-01-30T03:42:55;67.88;;;38.33;;
22871;SDS011;11603;44.910;8.630;2023-01-30T03:45:22;62.30;;;36.63;;
22871;SDS011;11603;44.910;8.630;2023-01-30T03:47:47;65.18;;;38.03;;
22871;SDS011;11603;44.910;8.630;2023-01-30T03:50:14;66.03;;;38.00;;
22871;SDS011;11603;44.910;8.630;2023-01-30T03:52:43;70.22;;;38.60;;
22871;SDS011;11603;44.910;8.630;2023-01-30T03:55:12;65.93;;;37.50;;
22871;SDS011;11603;44.910;8.630;2023-01-30T03:57:38;65.82;;;37.80;;
22871;SDS011;11603;44.910;8.630;2023-01-30T04:00:04;61.83;;;35.50;;
22871;SDS011;11603;44.910;8.630;2023-01-30T04:02:41;61.63;;;36.47;;
22871;SDS011;11603;44.910;8.630;2023-01-30T04:05:07;61.05;;;36.85;;
22871;SDS011;11603;44.910;8.630;2023-01-30T04:07:33;66.68;;;37.65;;
22871;SDS011;11603;44.910;8.630;2023-01-30T04:09:59;68.47;;;37.78;;
22871;SDS011;11603;44.910;8.630;2023-01-30T04:12:24;67.55;;;39.10;;
22871;SDS011;11603;44.910;8.630;2023-01-30T04:14:54;63.03;;;36.88;;
22871;SDS011;11603;44.910;8.630;2023-01-30T04:17:38;65.75;;;37.72;;
22871;SDS011;11603;44.910;8.630;2023-01-30T04:20:09;66.25;;;38.88;;
22871;SDS011;11603;44.910;8.630;2023-01-30T04:22:41;70.72;;;38.50;;
22871;SDS011;11603;44.910;8.630;2023-01-30T04:25:07;61.97;;;36.03;;
22871;SDS011;11603;44.910;8.630;2023-01-30T04:27:32;64.07;;;36.83;;
22871;SDS011;11603;44.910;8.630;2023-01-30T04:30:18;60.95;;;35.13;;
22871;SDS011;11603;44.910;8.630;2023-01-30T04:32:46;62.95;;;35.15;;
22871;SDS011;11603;44.910;8.630;2023-01-30T04:35:11;61.22;;;35.47;;
22871;SDS011;11603;44.910;8.630;2023-01-30T04:37:38;58.35;;;34.38;;
22871;SDS011;11603;44.910;8.630;2023-01-30T04:40:05;55.17;;;32.22;;
22871;SDS011;11603;44.910;8.630;2023-01-30T04:42:31;55.33;;;29.67;;
22871;SDS011;11603;44.910;8.630;2023-01-30T04:45:19;51.00;;;30.05;;
22871;SDS011;11603;44.910;8.630;2023-01-30T04:47:46;51.50;;;28.65;;
22871;SDS011;11603;44.910;8.630;2023-01-30T04:50:11;53.35;;;31.42;;
22871;SDS011;11603;44.910;8.630;2023-01-30T04:52:37;57.42;;;32.55;;
22871;SDS011;11603;44.910;8.630;2023-01-30T04:55:03;56.58;;;31.00;;
22871;SDS011;11603;44.910;8.630;2023-01-30T04:57:29;55.90;;;32.58;;
22871;SDS011;11603;44.910;8.630;2023-01-30T04:59:54;57.88;;;32.83;;
22871;SDS011;11603;44.910;8.630;2023-01-30T05:02:20;56.75;;;34.20;;
22871;SDS011;11603;44.910;8.630;2023-01-30T05:04:47;60.13;;;33.45;;
22871;SDS011;11603;44.910;8.630;2023-01-30T05:07:14;56.80;;;33.55;;
22871;SDS011;11603;44.910;8.630;2023-01-30T05:09:40;62.53;;;33.65;;
22871;SDS011;11603;44.910;8.630;2023-01-30T05:12:05;58.28;;;34.60;;
22871;SDS011;11603;44.910;8.630;2023-01-30T05:14:31;58.85;;;32.65;;
22871;SDS011;11603;44.910;8.630;2023-01-30T05:16:56;60.85;;;35.67;;
22871;SDS011;11603;44.910;8.630;2023-01-30T05:19:22;67.47;;;35.67;;
22871;SDS011;11603;44.910;8.630;2023-01-30T05:21:47;59.40;;;32.97;;
22871;SDS011;11603;44.910;8.630;2023-01-30T05:24:13;61.80;;;33.35;;
22871;SDS011;11603;44.910;8.630;2023-01-30T05:26:38;67.78;;;34.90;;
22871;SDS011;11603;44.910;8.630;2023-01-30T05:29:04;62.30;;;35.25;;
22871;SDS011;11603;44.910;8.630;2023-01-30T05:31:29;58.13;;;34.38;;
22871;SDS011;11603;44.910;8.630;2023-01-30T05:33:54;62.75;;;34.38;;
22871;SDS011;11603;44.910;8.630;2023-01-30T05:36:21;63.05;;;35.90;;
22871;SDS011;11603;44.910;8.630;2023-01-30T05:38:47;67.75;;;36.80;;
22871;SDS011;11603;44.910;8.630;2023-01-30T05:41:14;61.28;;;35.42;;
22871;SDS011;11603;44.910;8.630;2023-01-30T05:43:40;59.38;;;36.13;;
22871;SDS011;11603;44.910;8.630;2023-01-30T05:46:06;65.40;;;35.67;;
22871;SDS011;11603;44.910;8.630;2023-01-30T05:48:34;62.35;;;35.70;;
22871;SDS011;11603;44.910;8.630;2023-01-30T05:50:59;68.13;;;35.78;;
22871;SDS011;11603;44.910;8.630;2023-01-30T05:53:26;63.05;;;35.97;;
22871;SDS011;11603;44.910;8.630;2023-01-30T05:55:53;64.35;;;36.47;;
22871;SDS011;11603;44.910;8.630;2023-01-30T05:58:23;62.92;;;36.10;;
22871;SDS011;11603;44.910;8.630;2023-01-30T06:00:49;63.00;;;35.00;;
22871;SDS011;11603;44.910;8.630;2023-01-30T06:03:15;64.68;;;37.45;;
22871;SDS011;11603;44.910;8.630;2023-01-30T06:05:40;70.18;;;39.40;;
22871;SDS011;11603;44.910;8.630;2023-01-30T06:08:06;66.45;;;37.20;;
22871;SDS011;11603;44.910;8.630;2023-01-30T06:10:32;66.75;;;37.25;;
22871;SDS011;11603;44.910;8.630;2023-01-30T06:12:58;61.17;;;35.22;;
22871;SDS011;11603;44.910;8.630;2023-01-30T06:15:24;62.97;;;36.20;;
22871;SDS011;11603;44.910;8.630;2023-01-30T06:17:49;59.40;;;34.80;;
22871;SDS011;11603;44.910;8.630;2023-01-30T06:20:15;62.30;;;35.10;;
22871;SDS011;11603;44.910;8.630;2023-01-30T06:22:40;60.25;;;35.22;;
22871;SDS011;11603;44.910;8.630;2023-01-30T06:25:06;59.40;;;33.22;;
22871;SDS011;11603;44.910;8.630;2023-01-30T06:27:33;62.05;;;35.38;;
22871;SDS011;11603;44.910;8.630;2023-01-30T06:29:58;60.25;;;32.85;;
22871;SDS011;11603;44.910;8.630;2023-01-30T06:32:24;63.00;;;34.88;;
22871;SDS011;11603;44.910;8.630;2023-01-30T06:34:49;61.47;;;34.55;;
22871;SDS011;11603;44.910;8.630;2023-01-30T06:37:15;62.22;;;35.40;;
22871;SDS011;11603;44.910;8.630;2023-01-30T06:39:40;61.83;;;33.75;;
22871;SDS011;11603;44.910;8.630;2023-01-30T06:42:05;62.47;;;35.90;;
22871;SDS011;11603;44.910;8.630;2023-01-30T06:44:31;64.40;;;35.65;;
22871;SDS011;11603;44.910;8.630;2023-01-30T06:46:56;65.53;;;35.90;;
22871;SDS011;11603;44.910;8.630;2023-01-30T06:49:22;65.25;;;36.80;;
22871;SDS011;11603;44.910;8.630;2023-01-30T06:51:47;68.07;;;37.33;;
22871;SDS011;11603;44.910;8.630;2023-01-30T06:54:13;72.95;;;39.60;;
22871;SDS011;11603;44.910;8.630;2023-01-30T06:56:38;62.65;;;36.17;;
22871;SDS011;11603;44.910;8.630;2023-01-30T06:59:04;62.17;;;35.80;;
22871;SDS011;11603;44.910;8.630;2023-01-30T07:01:29;64.68;;;37.47;;
22871;SDS011;11603;44.910;8.630;2023-01-30T07:03:55;63.80;;;35.38;;
22871;SDS011;11603;44.910;8.630;2023-01-30T07:06:20;63.95;;;35.67;;
22871;SDS011;11603;44.910;8.630;2023-01-30T07:08:46;60.20;;;34.22;;
22871;SDS011;11603;44.910;8.630;2023-01-30T07:11:11;64.07;;;33.92;;
22871;SDS011;11603;44.910;8.630;2023-01-30T07:13:37;60.58;;;33.97;;
22871;SDS011;11603;44.910;8.630;2023-01-30T07:16:02;60.83;;;33.20;;
22871;SDS011;11603;44.910;8.630;2023-01-30T07:18:28;59.08;;;32.60;;
22871;SDS011;11603;44.910;8.630;2023-01-30T07:20:53;58.95;;;33.15;;
22871;SDS011;11603;44.910;8.630;2023-01-30T07:23:19;60.83;;;33.78;;
22871;SDS011;11603;44.910;8.630;2023-01-30T07:25:44;58.72;;;34.08;;
22871;SDS011;11603;44.910;8.630;2023-01-30T07:28:12;63.80;;;34.38;;
22871;SDS011;11603;44.910;8.630;2023-01-30T07:30:38;60.25;;;33.28;;
22871;SDS011;11603;44.910;8.630;2023-01-30T07:33:04;58.90;;;33.63;;
22871;SDS011;11603;44.910;8.630;2023-01-30T07:35:32;60.08;;;34.03;;
22871;SDS011;11603;44.910;8.630;2023-01-30T07:37:59;54.42;;;30.85;;
22871;SDS011;11603;44.910;8.630;2023-01-30T07:40:24;57.53;;;31.48;;
22871;SDS011;11603;44.910;8.630;2023-01-30T07:42:54;56.22;;;32.00;;
22871;SDS011;11603;44.910;8.630;2023-01-30T07:45:37;58.90;;;30.40;;
22871;SDS011;11603;44.910;8.630;2023-01-30T07:48:04;54.63;;;30.45;;
22871;SDS011;11603;44.910;8.630;2023-01-30T07:50:31;52.83;;;30.05;;
22871;SDS011;11603;44.910;8.630;2023-01-30T07:52:57;52.83;;;30.48;;
22871;SDS011;11603;44.910;8.630;2023-01-30T07:55:22;52.08;;;29.90;;
22871;SDS011;11603;44.910;8.630;2023-01-30T07:57:48;53.35;;;29.02;;
22871;SDS011;11603;44.910;8.630;2023-01-30T08:00:13;57.80;;;29.33;;
22871;SDS011;11603;44.910;8.630;2023-01-30T08:02:40;50.63;;;29.08;;
22871;SDS011;11603;44.910;8.630;2023-01-30T08:05:06;52.22;;;29.63;;
22871;SDS011;11603;44.910;8.630;2023-01-30T08:07:32;54.97;;;29.75;;
22871;SDS011;11603;44.910;8.630;2023-01-30T08:09:57;56.53;;;27.42;;
22871;SDS011;11603;44.910;8.630;2023-01-30T08:12:23;51.33;;;28.73;;
22871;SDS011;11603;44.910;8.630;2023-01-30T08:14:48;56.72;;;30.42;;
22871;SDS011;11603;44.910;8.630;2023-01-30T08:17:14;53.25;;;30.38;;
22871;SDS011;11603;44.910;8.630;2023-01-30T08:19:39;55.53;;;31.48;;
22871;SDS011;11603;44.910;8.630;2023-01-30T08:22:05;53.35;;;30.45;;
22871;SDS011;11603;44.910;8.630;2023-01-30T08:24:30;51.17;;;29.55;;
22871;SDS011;11603;44.910;8.630;2023-01-30T08:26:56;51.33;;;29.10;;
22871;SDS011;11603;44.910;8.630;2023-01-30T08:29:21;49.55;;;27.77;;
22871;SDS011;11603;44.910;8.630;2023-01-30T08:31:47;56.78;;;28.30;;
22871;SDS011;11603;44.910;8.630;2023-01-30T08:34:12;57.03;;;29.35;;
22871;SDS011;11603;44.910;8.630;2023-01-30T08:36:38;50.45;;;28.58;;
22871;SDS011;11603;44.910;8.630;2023-01-30T08:39:03;50.92;;;28.65;;
22871;SDS011;11603;44.910;8.630;2023-01-30T08:41:29;49.85;;;28.48;;
22871;SDS011;11603;44.910;8.630;2023-01-30T08:43:54;50.00;;;28.17;;
22871;SDS011;11603;44.910;8.630;2023-01-30T08:46:20;53.65;;;30.60;;
22871;SDS011;11603;44.910;8.630;2023-01-30T08:48:46;55.70;;;33.05;;
22871;SDS011;11603;44.910;8.630;2023-01-30T08:51:12;56.35;;;30.88;;
22871;SDS011;11603;44.910;8.630;2023-01-30T08:53:37;55.67;;;31.75;;
22871;SDS011;11603;44.910;8.630;2023-01-30T08:56:03;56.38;;;31.73;;
22871;SDS011;11603;44.910;8.630;2023-01-30T08:58:29;63.80;;;32.55;;
22871;SDS011;11603;44.910;8.630;2023-01-30T09:00:54;58.03;;;32.42;;
22871;SDS011;11603;44.910;8.630;2023-01-30T09:03:20;58.05;;;33.10;;
22871;SDS011;11603;44.910;8.630;2023-01-30T09:05:45;56.42;;;33.88;;
22871;SDS011;11603;44.910;8.630;2023-01-30T09:08:12;65.18;;;35.25;;
22871;SDS011;11603;44.910;8.630;2023-01-30T09:10:38;62.92;;;34.80;;
22871;SDS011;11603;44.910;8.630;2023-01-30T09:13:03;59.35;;;34.30;;
22871;SDS011;11603;44.910;8.630;2023-01-30T09:15:30;61.10;;;35.10;;
22871;SDS011;11603;44.910;8.630;2023-01-30T09:17:56;65.57;;;35.60;;
22871;SDS011;11603;44.910;8.630;2023-01-30T09:20:22;66.43;;;35.60;;
22871;SDS011;11603;44.910;8.630;2023-01-30T09:22:49;72.35;;;37.67;;
22871;SDS011;11603;44.910;8.630;2023-01-30T09:25:14;63.80;;;35.85;;
22871;SDS011;11603;44.910;8.630;2023-01-30T09:27:40;64.90;;;35.95;;
22871;SDS011;11603;44.910;8.630;2023-01-30T09:30:08;64.80;;;38.03;;
22871;SDS011;11603;44.910;8.630;2023-01-30T09:32:34;67.25;;;35.80;;
22871;SDS011;11603;44.910;8.630;2023-01-30T09:35:02;61.97;;;36.22;;
22871;SDS011;11603;44.910;8.630;2023-01-30T09:37:28;64.30;;;36.50;;
22871;SDS011;11603;44.910;8.630;2023-01-30T09:39:53;65.75;;;37.05;;
22871;SDS011;11603;44.910;8.630;2023-01-30T09:42:31;62.30;;;35.53;;
22871;SDS011;11603;44.910;8.630;2023-01-30T09:47:39;59.75;;;35.25;;
22871;SDS011;11603;44.910;8.630;2023-01-30T09:55:56;60.78;;;33.95;;
22871;SDS011;11603;44.910;8.630;2023-01-30T09:58:23;62.95;;;34.88;;
22871;SDS011;11603;44.910;8.630;2023-01-30T10:00:55;70.32;;;33.22;;
22871;SDS011;11603;44.910;8.630;2023-01-30T10:03:32;61.65;;;36.60;;
22871;SDS011;11603;44.910;8.630;2023-01-30T10:06:04;66.90;;;36.47;;
22871;SDS011;11603;44.910;8.630;2023-01-30T10:22:15;58.47;;;33.97;;
22871;SDS011;11603;44.910;8.630;2023-01-30T10:27:28;73.80;;;39.35;;
22871;SDS011;11603;44.910;8.630;2023-01-30T10:29:59;63.00;;;34.67;;
22871;SDS011;11603;44.910;8.630;2023-01-30T10:32:34;62.30;;;34.75;;
22871;SDS011;11603;44.910;8.630;2023-01-30T10:35:29;57.20;;;32.88;;
22871;SDS011;11603;44.910;8.630;2023-01-30T10:43:14;57.80;;;32.42;;
22871;SDS011;11603;44.910;8.630;2023-01-30T10:48:45;53.33;;;31.75;;
22871;SDS011;11603;44.910;8.630;2023-01-30T10:51:23;51.03;;;30.95;;
22871;SDS011;11603;44.910;8.630;2023-01-30T10:53:52;51.22;;;31.50;;
22871;SDS011;11603;44.910;8.630;2023-01-30T10:59:02;55.50;;;30.83;;
22871;SDS011;11603;44.910;8.630;2023-01-30T11:01:42;53.28;;;30.05;;
22871;SDS011;11603;44.910;8.630;2023-01-30T11:04:21;53.20;;;29.70;;
22871;SDS011;11603;44.910;8.630;2023-01-30T11:06:53;55.17;;;30.23;;
22871;SDS011;11603;44.910;8.630;2023-01-30T11:09:21;46.80;;;29.80;;
22871;SDS011;11603;44.910;8.630;2023-01-30T11:11:53;51.00;;;29.73;;
22871;SDS011;11603;44.910;8.630;2023-01-30T11:14:19;51.92;;;30.50;;
22871;SDS011;11603;44.910;8.630;2023-01-30T11:16:49;53.70;;;28.50;;
22871;SDS011;11603;44.910;8.630;2023-01-30T11:19:18;48.80;;;28.85;;
22871;SDS011;11603;44.910;8.630;2023-01-30T11:21:47;51.72;;;30.35;;
22871;SDS011;11603;44.910;8.630;2023-01-30T11:24:22;52.28;;;30.73;;
22871;SDS011;11603;44.910;8.630;2023-01-30T11:26:54;47.80;;;29.65;;
22871;SDS011;11603;44.910;8.630;2023-01-30T11:29:25;54.95;;;30.50;;
22871;SDS011;11603;44.910;8.630;2023-01-30T11:31:53;48.00;;;29.60;;
22871;SDS011;11603;44.910;8.630;2023-01-30T11:34:20;51.53;;;28.95;;
22871;SDS011;11603;44.910;8.630;2023-01-30T11:36:47;51.03;;;28.10;;
22871;SDS011;11603;44.910;8.630;2023-01-30T11:41:43;49.85;;;28.15;;
22871;SDS011;11603;44.910;8.630;2023-01-30T11:46:58;51.47;;;28.50;;
22871;SDS011;11603;44.910;8.630;2023-01-30T11:49:27;45.42;;;27.65;;
22871;SDS011;11603;44.910;8.630;2023-01-30T11:51:57;47.58;;;29.35;;
22871;SDS011;11603;44.910;8.630;2023-01-30T11:54:27;50.17;;;27.83;;
22871;SDS011;11603;44.910;8.630;2023-01-30T11:57:03;51.22;;;29.60;;
22871;SDS011;11603;44.910;8.630;2023-01-30T11:59:39;54.03;;;29.08;;
22871;SDS011;11603;44.910;8.630;2023-01-30T12:05:35;49.90;;;27.85;;
22871;SDS011;11603;44.910;8.630;2023-01-30T12:07:49;45.50;;;26.88;;
22871;SDS011;11603;44.910;8.630;2023-01-30T12:10:23;43.00;;;25.35;;
22871;SDS011;11603;44.910;8.630;2023-01-30T12:12:55;43.42;;;26.25;;
22871;SDS011;11603;44.910;8.630;2023-01-30T12:17:56;39.85;;;23.98;;
22871;SDS011;11603;44.910;8.630;2023-01-30T12:23:12;46.10;;;26.05;;
22871;SDS011;11603;44.910;8.630;2023-01-30T12:31:11;45.78;;;26.17;;
22871;SDS011;11603;44.910;8.630;2023-01-30T12:33:43;47.70;;;26.08;;
22871;SDS011;11603;44.910;8.630;2023-01-30T12:36:30;48.20;;;26.05;;
22871;SDS011;11603;44.910;8.630;2023-01-30T12:44:46;51.45;;;27.55;;
22871;SDS011;11603;44.910;8.630;2023-01-30T13:06:21;49.70;;;27.38;;
22871;SDS011;11603;44.910;8.630;2023-01-30T13:12:11;42.20;;;26.35;;
22871;SDS011;11603;44.910;8.630;2023-01-30T13:14:33;39.03;;;25.45;;
22871;SDS011;11603;44.910;8.630;2023-01-30T13:20:04;46.63;;;27.10;;
22871;SDS011;11603;44.910;8.630;2023-01-30T13:22:40;51.70;;;26.45;;
22871;SDS011;11603;44.910;8.630;2023-01-30T13:25:19;42.95;;;25.70;;
22871;SDS011;11603;44.910;8.630;2023-01-30T13:27:54;45.42;;;26.65;;
22871;SDS011;11603;44.910;8.630;2023-01-30T13:30:23;44.25;;;25.90;;
22871;SDS011;11603;44.910;8.630;2023-01-30T13:32:52;51.33;;;26.27;;
22871;SDS011;11603;44.910;8.630;2023-01-30T13:35:32;45.25;;;25.67;;
22871;SDS011;11603;44.910;8.630;2023-01-30T13:38:03;42.15;;;25.73;;
22871;SDS011;11603;44.910;8.630;2023-01-30T13:40:34;45.53;;;26.55;;
22871;SDS011;11603;44.910;8.630;2023-01-30T13:45:44;42.42;;;25.38;;
22871;SDS011;11603;44.910;8.630;2023-01-30T13:48:16;46.20;;;25.48;;
22871;SDS011;11603;44.910;8.630;2023-01-30T13:50:56;45.08;;;25.52;;
22871;SDS011;11603;44.910;8.630;2023-01-30T14:07:08;37.88;;;22.92;;
22871;SDS011;11603;44.910;8.630;2023-01-30T14:09:34;38.33;;;23.30;;
22871;SDS011;11603;44.910;8.630;2023-01-30T14:12:01;43.30;;;25.13;;
22871;SDS011;11603;44.910;8.630;2023-01-30T14:17:09;42.13;;;23.15;;
22871;SDS011;11603;44.910;8.630;2023-01-30T14:19:57;43.80;;;24.60;;
22871;SDS011;11603;44.910;8.630;2023-01-30T14:22:36;39.40;;;23.75;;
22871;SDS011;11603;44.910;8.630;2023-01-30T14:28:43;42.33;;;23.92;;
22871;SDS011;11603;44.910;8.630;2023-01-30T14:35:47;34.35;;;22.10;;
22871;SDS011;11603;44.910;8.630;2023-01-30T14:38:13;40.80;;;23.73;;
22871;SDS011;11603;44.910;8.630;2023-01-30T14:40:42;35.25;;;21.50;;
22871;SDS011;11603;44.910;8.630;2023-01-30T14:56:36;41.40;;;23.45;;
22871;SDS011;11603;44.910;8.630;2023-01-30T15:27:48;45.15;;;24.77;;
22871;SDS011;11603;44.910;8.630;2023-01-30T15:33:21;41.30;;;25.40;;
22871;SDS011;11603;44.910;8.630;2023-01-30T15:35:48;41.45;;;24.85;;
22871;SDS011;11603;44.910;8.630;2023-01-30T15:38:20;41.53;;;25.45;;
22871;SDS011;11603;44.910;8.630;2023-01-30T15:41:00;40.03;;;24.38;;
22871;SDS011;11603;44.910;8.630;2023-01-30T15:43:34;38.05;;;24.73;;
22871;SDS011;11603;44.910;8.630;2023-01-30T15:46:09;38.53;;;24.33;;
22871;SDS011;11603;44.910;8.630;2023-01-30T15:51:29;37.20;;;24.00;;
22871;SDS011;11603;44.910;8.630;2023-01-30T15:53:57;39.65;;;24.23;;
22871;SDS011;11603;44.910;8.630;2023-01-30T15:56:26;41.55;;;24.65;;
22871;SDS011;11603;44.910;8.630;2023-01-30T15:58:55;39.20;;;24.95;;
22871;SDS011;11603;44.910;8.630;2023-01-30T16:01:23;41.03;;;26.85;;
22871;SDS011;11603;44.910;8.630;2023-01-30T16:03:49;41.50;;;24.95;;
22871;SDS011;11603;44.910;8.630;2023-01-30T16:06:31;42.65;;;26.58;;
22871;SDS011;11603;44.910;8.630;2023-01-30T16:09:03;45.40;;;26.52;;
22871;SDS011;11603;44.910;8.630;2023-01-30T16:11:40;46.17;;;27.75;;
22871;SDS011;11603;44.910;8.630;2023-01-30T16:14:10;38.45;;;25.27;;
22871;SDS011;11603;44.910;8.630;2023-01-30T16:16:37;43.22;;;26.10;;
22871;SDS011;11603;44.910;8.630;2023-01-30T16:19:10;40.50;;;25.80;;
22871;SDS011;11603;44.910;8.630;2023-01-30T16:21:45;40.70;;;25.60;;
22871;SDS011;11603;44.910;8.630;2023-01-30T16:26:50;40.58;;;25.90;;
22871;SDS011;11603;44.910;8.630;2023-01-30T16:29:20;43.33;;;25.27;;
22871;SDS011;11603;44.910;8.630;2023-01-30T16:31:48;61.83;;;27.42;;
22871;SDS011;11603;44.910;8.630;2023-01-30T16:37:21;42.90;;;24.65;;
22871;SDS011;11603;44.910;8.630;2023-01-30T16:53:47;43.85;;;25.20;;
22871;SDS011;11603;44.910;8.630;2023-01-30T16:56:16;46.08;;;24.80;;
22871;SDS011;11603;44.910;8.630;2023-01-30T16:58:45;50.33;;;26.85;;
22871;SDS011;11603;44.910;8.630;2023-01-30T17:01:14;43.05;;;25.73;;
22871;SDS011;11603;44.910;8.630;2023-01-30T17:03:40;45.95;;;25.90;;
22871;SDS011;11603;44.910;8.630;2023-01-30T17:06:21;46.95;;;25.75;;
22871;SDS011;11603;44.910;8.630;2023-01-30T17:08:51;44.05;;;24.80;;
22871;SDS011;11603;44.910;8.630;2023-01-30T17:14:16;50.38;;;24.25;;
22871;SDS011;11603;44.910;8.630;2023-01-30T17:16:58;44.20;;;23.52;;
22871;SDS011;11603;44.910;8.630;2023-01-30T17:19:24;46.40;;;23.52;;
22871;SDS011;11603;44.910;8.630;2023-01-30T17:21:50;41.33;;;22.83;;
22871;SDS011;11603;44.910;8.630;2023-01-30T17:24:20;42.72;;;23.67;;
22871;SDS011;11603;44.910;8.630;2023-01-30T17:26:48;40.17;;;22.77;;
22871;SDS011;11603;44.910;8.630;2023-01-30T17:29:18;40.03;;;22.05;;
22871;SDS011;11603;44.910;8.630;2023-01-30T17:31:48;35.88;;;24.08;;
22871;SDS011;11603;44.910;8.630;2023-01-30T17:34:14;41.33;;;24.17;;
22871;SDS011;11603;44.910;8.630;2023-01-30T17:36:41;42.30;;;23.92;;
22871;SDS011;11603;44.910;8.630;2023-01-30T17:39:11;43.83;;;24.52;;
22871;SDS011;11603;44.910;8.630;2023-01-30T17:41:39;39.72;;;23.23;;
22871;SDS011;11603;44.910;8.630;2023-01-30T17:44:05;41.90;;;24.27;;
22871;SDS011;11603;44.910;8.630;2023-01-30T17:46:34;42.22;;;24.70;;
22871;SDS011;11603;44.910;8.630;2023-01-30T17:49:16;54.85;;;27.05;;
22871;SDS011;11603;44.910;8.630;2023-01-30T17:51:44;44.42;;;25.73;;
22871;SDS011;11603;44.910;8.630;2023-01-30T17:54:10;47.75;;;25.48;;
22871;SDS011;11603;44.910;8.630;2023-01-30T17:56:36;41.53;;;23.65;;
22871;SDS011;11603;44.910;8.630;2023-01-30T17:59:05;42.65;;;23.50;;
22871;SDS011;11603;44.910;8.630;2023-01-30T18:01:37;41.17;;;23.67;;
22871;SDS011;11603;44.910;8.630;2023-01-30T18:04:10;40.10;;;23.70;;